createdAt,value
2022-07-31T00:00:33.617Z,59.02
2022-07-31T00:05:38.744Z,58.96
2022-07-31T00:10:35.723Z,58.93
2022-07-31T00:15:35.710Z,58.87
2022-07-31T00:20:35.694Z,58.86
2022-07-31T00:25:35.682Z,58.75
2022-07-31T00:30:35.710Z,58.59
2022-07-31T00:35:35.651Z,58.46
2022-07-31T00:40:35.683Z,58.46
2022-07-31T00:45:35.727Z,58.32
2022-07-31T00:50:37.707Z,58.31
2022-07-31T00:55:51.096Z,58.39
2022-07-31T01:00:40.996Z,58.79
2022-07-31T01:05:41.259Z,59.14
2022-07-31T01:10:42.188Z,59.38
2022-07-31T01:15:41.704Z,59.52
2022-07-31T01:20:42.504Z,59.81
2022-07-31T01:25:56.840Z,59.87
2022-07-31T01:31:17.110Z,60.25
2022-07-31T01:35:58.711Z,61.03
2022-07-31T01:40:58.796Z,61.58
2022-07-31T01:45:59.960Z,61.82
2022-07-31T01:50:59.932Z,62.13
2022-07-31T01:56:03.859Z,62.25
2022-07-31T02:01:02.055Z,62.50
2022-07-31T02:06:03.788Z,62.43
2022-07-31T02:11:05.157Z,62.23
2022-07-31T02:16:06.216Z,62.14
2022-07-31T02:21:05.843Z,62.17
2022-07-31T02:26:07.512Z,62.16
2022-07-31T02:31:08.007Z,62.15
2022-07-31T02:36:07.742Z,62.17
2022-07-31T02:41:08.269Z,62.03
2022-07-31T02:46:07.890Z,61.76
2022-07-31T02:51:08.255Z,61.55
2022-07-31T02:56:10.338Z,61.31
2022-07-31T03:01:10.985Z,60.99
2022-07-31T03:06:11.718Z,60.79
2022-07-31T03:11:11.776Z,60.70
2022-07-31T03:16:11.743Z,60.68
2022-07-31T03:21:11.839Z,60.64
2022-07-31T03:26:12.255Z,60.58
2022-07-31T03:31:11.759Z,60.51
2022-07-31T03:36:12.365Z,60.45
2022-07-31T03:41:12.822Z,60.37
2022-07-31T03:46:12.978Z,60.28
2022-07-31T03:51:13.080Z,60.20
2022-07-31T03:56:12.972Z,60.09
2022-07-31T04:01:12.964Z,59.98
2022-07-31T04:06:12.785Z,59.96
2022-07-31T04:11:12.967Z,59.86
2022-07-31T04:16:12.810Z,59.82
2022-07-31T04:21:12.783Z,59.76
2022-07-31T04:26:19.917Z,59.69
2022-07-31T04:31:18.719Z,59.57
2022-07-31T04:36:29.538Z,59.60
2022-07-31T04:41:21.014Z,59.51
2022-07-31T04:46:20.841Z,59.44
2022-07-31T04:51:21.006Z,59.49
2022-07-31T04:56:37.301Z,59.36
2022-07-31T05:01:37.008Z,59.25
2022-07-31T05:06:37.884Z,59.00
2022-07-31T05:11:38.209Z,58.85
2022-07-31T05:16:38.150Z,59.07
2022-07-31T05:21:52.840Z,58.96
2022-07-31T05:26:41.868Z,58.46
2022-07-31T05:32:00.549Z,58.72
2022-07-31T05:36:44.939Z,58.94
2022-07-31T05:41:52.804Z,59.05
2022-07-31T05:51:54.631Z,58.44
2022-07-31T05:56:56.828Z,57.46
2022-07-31T06:01:57.489Z,56.65
2022-07-31T06:06:59.782Z,56.31
2022-07-31T06:12:00.643Z,55.74
2022-07-31T06:17:00.896Z,54.85
2022-07-31T06:22:02.725Z,54.06
2022-07-31T06:27:04.538Z,52.85
2022-07-31T06:32:05.951Z,52.23
2022-07-31T06:37:06.072Z,51.99
2022-07-31T06:42:07.902Z,50.63
2022-07-31T06:47:26.640Z,49.24
2022-07-31T06:52:27.360Z,47.29
2022-07-31T06:57:26.915Z,47.40
2022-07-31T07:02:27.939Z,48.26
2022-07-31T07:07:31.948Z,48.81
2022-07-31T07:12:31.632Z,49.13
2022-07-31T07:17:32.885Z,49.68
2022-07-31T07:22:34.618Z,49.85
2022-07-31T07:27:36.317Z,50.12
2022-07-31T07:32:35.963Z,50.65
2022-07-31T07:37:38.948Z,51.36
2022-07-31T07:42:38.483Z,51.11
2022-07-31T07:48:05.314Z,51.25
2022-07-31T07:52:51.110Z,51.24
2022-07-31T07:57:58.531Z,50.34
2022-07-31T08:03:46.823Z,44.40
2022-07-31T08:08:17.143Z,43.72
2022-07-31T08:13:35.815Z,43.56
2022-07-31T08:18:38.039Z,42.21
2022-07-31T08:23:38.959Z,38.25
2022-07-31T08:28:39.314Z,36.78
2022-07-31T08:33:39.623Z,37.96
2022-07-31T08:38:59.037Z,38.59
2022-07-31T08:44:00.237Z,38.60
2022-07-31T08:49:01.178Z,38.42
2022-07-31T08:54:01.116Z,38.98
2022-07-31T08:59:01.456Z,40.12
2022-07-31T09:04:01.288Z,39.43
2022-07-31T09:09:01.111Z,36.66
2022-07-31T09:14:03.485Z,35.88
2022-07-31T09:19:03.448Z,35.21
2022-07-31T09:24:05.122Z,34.53
2022-07-31T09:29:07.489Z,31.84
2022-07-31T09:34:14.899Z,26.61
2022-07-31T09:39:35.937Z,25.76
2022-07-31T09:44:36.192Z,29.77
2022-07-31T09:49:36.846Z,30.91
2022-07-31T09:54:39.002Z,31.28
2022-07-31T09:59:39.295Z,32.56
2022-07-31T10:04:41.103Z,33.32
2022-07-31T10:09:43.074Z,34.17
2022-07-31T10:14:44.055Z,35.01
2022-07-31T10:19:58.042Z,35.46
2022-07-31T10:25:00.253Z,36.47
2022-07-31T10:30:00.174Z,37.30
2022-07-31T10:35:01.983Z,37.06
2022-07-31T10:40:04.100Z,36.23
2022-07-31T10:45:06.022Z,35.56
2022-07-31T10:50:20.184Z,34.73
2022-07-31T10:55:40.434Z,34.39
2022-07-31T11:00:51.149Z,33.51
2022-07-31T11:06:01.453Z,33.62
2022-07-31T11:10:57.107Z,33.44
2022-07-31T11:16:16.888Z,33.71
2022-07-31T11:21:37.611Z,34.05
2022-07-31T11:26:19.190Z,34.54
2022-07-31T11:31:21.692Z,35.47
2022-07-31T11:36:21.176Z,36.01
2022-07-31T11:41:22.274Z,36.09
2022-07-31T11:46:23.236Z,36.58
2022-07-31T11:51:23.268Z,37.20
2022-07-31T11:56:23.789Z,37.96
2022-07-31T12:01:23.280Z,38.93
2022-07-31T12:06:23.295Z,39.93
2022-07-31T12:11:25.302Z,39.40
2022-07-31T12:16:28.368Z,38.44
2022-07-31T12:21:28.394Z,38.11
2022-07-31T12:26:28.320Z,37.98
2022-07-31T12:31:28.285Z,37.83
2022-07-31T12:36:28.299Z,37.60
2022-07-31T12:41:28.223Z,37.61
2022-07-31T12:46:28.273Z,38.23
2022-07-31T12:51:45.669Z,38.85
2022-07-31T12:56:32.328Z,38.74
2022-07-31T13:01:32.356Z,39.31
2022-07-31T13:06:32.338Z,39.36
2022-07-31T13:11:46.278Z,39.62
2022-07-31T13:16:34.270Z,39.78
2022-07-31T13:21:48.419Z,39.34
2022-07-31T13:26:37.708Z,39.72
2022-07-31T13:31:37.346Z,40.39
2022-07-31T13:36:39.509Z,41.26
2022-07-31T13:41:39.789Z,41.98
2022-07-31T13:46:40.320Z,42.38
2022-07-31T13:51:40.314Z,42.04
2022-07-31T13:56:43.335Z,42.65
2022-07-31T14:02:03.580Z,43.72
2022-07-31T14:06:45.746Z,44.49
2022-07-31T14:11:46.357Z,44.83
2022-07-31T14:16:48.376Z,44.21
2022-07-31T14:21:56.546Z,43.52
2022-07-31T14:26:50.372Z,43.44
2022-07-31T14:31:50.475Z,43.43
2022-07-31T14:36:50.354Z,43.59
2022-07-31T14:41:50.569Z,43.92
2022-07-31T14:46:50.705Z,43.99
2022-07-31T14:51:50.456Z,44.52
2022-07-31T14:57:01.150Z,45.19
2022-07-31T15:01:52.569Z,44.68
2022-07-31T15:07:03.104Z,44.92
2022-07-31T15:11:59.935Z,45.16
2022-07-31T15:16:56.470Z,45.36
2022-07-31T15:22:10.407Z,45.05
2022-07-31T15:26:58.483Z,45.27
2022-07-31T15:31:58.473Z,45.41
2022-07-31T15:36:58.408Z,45.32
2022-07-31T15:41:58.400Z,45.67
2022-07-31T15:46:58.423Z,45.72
2022-07-31T15:51:58.472Z,45.65
2022-07-31T15:56:58.490Z,45.79
2022-07-31T16:01:58.468Z,45.95
2022-07-31T16:06:59.047Z,46.25
2022-07-31T16:12:03.892Z,46.19
2022-07-31T16:17:01.534Z,45.96
2022-07-31T16:22:01.417Z,46.28
2022-07-31T16:27:01.467Z,46.74
2022-07-31T16:32:01.548Z,47.10
2022-07-31T16:37:01.861Z,47.37
2022-07-31T16:42:02.492Z,47.69
2022-07-31T16:47:02.561Z,48.15
2022-07-31T16:52:02.474Z,48.65
2022-07-31T16:57:02.816Z,48.97
2022-07-31T17:02:02.709Z,49.12
2022-07-31T17:07:03.041Z,49.58
2022-07-31T17:12:04.259Z,50.14
2022-07-31T17:17:04.760Z,50.74
2022-07-31T17:22:04.550Z,51.11
2022-07-31T17:27:05.009Z,51.27
2022-07-31T17:32:05.609Z,51.26
2022-07-31T17:37:06.667Z,51.26
2022-07-31T17:42:09.702Z,51.31
2022-07-31T17:47:10.886Z,51.21
2022-07-31T17:52:11.837Z,51.90
2022-07-31T17:57:11.647Z,52.70
2022-07-31T18:02:12.714Z,53.47
2022-07-31T18:07:17.378Z,58.88
2022-07-31T18:12:17.737Z,66.00
2022-07-31T18:17:18.903Z,66.04
2022-07-31T18:22:18.527Z,65.92
2022-07-31T18:27:18.609Z,65.99
2022-07-31T18:32:44.034Z,66.75
2022-07-31T18:37:43.567Z,68.23
2022-07-31T18:42:43.654Z,68.24
2022-07-31T18:47:43.576Z,68.54
2022-07-31T18:52:43.879Z,69.07
2022-07-31T18:57:43.964Z,69.79
2022-07-31T19:02:43.722Z,72.89
2022-07-31T19:07:43.572Z,73.17
2022-07-31T19:12:45.847Z,74.74
2022-07-31T19:17:45.705Z,74.44
2022-07-31T19:22:45.603Z,76.14
2022-07-31T19:27:50.485Z,77.66
2022-07-31T19:32:47.664Z,77.69
2022-07-31T19:37:47.779Z,77.73
2022-07-31T19:42:51.713Z,77.65
2022-07-31T19:47:51.782Z,77.47
2022-07-31T19:52:51.689Z,77.25
2022-07-31T19:57:51.649Z,77.11
2022-07-31T20:02:52.202Z,76.91
2022-07-31T20:07:51.698Z,76.85
2022-07-31T20:12:51.706Z,76.78
2022-07-31T20:17:52.608Z,76.77
2022-07-31T20:22:52.721Z,77.02
2022-07-31T20:27:52.797Z,77.15
2022-07-31T20:32:52.841Z,77.54
2022-07-31T20:37:55.283Z,77.79
2022-07-31T20:42:58.711Z,78.16
2022-07-31T20:47:58.794Z,78.42
2022-07-31T20:52:58.771Z,79.03
2022-07-31T20:57:58.675Z,78.96
2022-07-31T21:02:59.925Z,79.05
2022-07-31T21:07:59.691Z,79.20
2022-07-31T21:12:59.832Z,79.36
2022-07-31T21:17:59.656Z,79.53
2022-07-31T21:23:01.429Z,79.48
2022-07-31T21:28:01.771Z,79.51
2022-07-31T21:33:01.699Z,79.53
2022-07-31T21:38:01.742Z,79.43
2022-07-31T21:43:02.861Z,79.39
2022-07-31T21:48:03.446Z,79.32
2022-07-31T21:53:03.887Z,79.62
2022-07-31T21:58:03.766Z,79.50
2022-07-31T22:03:03.796Z,79.43
2022-07-31T22:08:03.813Z,79.43
2022-07-31T22:13:04.831Z,79.39
2022-07-31T22:18:04.743Z,79.41
2022-07-31T22:23:04.724Z,79.31
2022-07-31T22:28:04.768Z,79.34
2022-07-31T22:33:05.080Z,79.26
2022-07-31T22:38:05.758Z,79.18
2022-07-31T22:44:09.898Z,79.13
2022-07-31T22:48:07.786Z,79.12
2022-07-31T22:53:07.823Z,79.08
2022-07-31T22:58:10.308Z,79.01
2022-07-31T23:03:09.825Z,79.09
2022-07-31T23:08:09.914Z,79.45
2022-07-31T23:13:09.871Z,79.61
2022-07-31T23:18:09.842Z,79.72
2022-07-31T23:23:09.770Z,79.76
2022-07-31T23:28:09.851Z,79.82
2022-07-31T23:33:11.720Z,80.01
2022-07-31T23:38:11.831Z,80.25
2022-07-31T23:43:11.862Z,80.39
2022-07-31T23:48:13.267Z,80.35
2022-07-31T23:53:13.953Z,80.35
2022-07-31T23:58:13.918Z,80.47
